createdAt,value
2018-01-26T00:00:01.528Z,8.20
2018-01-26T00:02:29.058Z,8.10
2018-01-26T00:04:56.613Z,8.20
2018-01-26T00:07:24.185Z,8.20
2018-01-26T00:09:52.494Z,8.20
2018-01-26T00:12:20.019Z,8.10
2018-01-26T00:14:47.545Z,8.20
2018-01-26T00:17:15.841Z,8.20
2018-01-26T00:19:43.473Z,8.10
2018-01-26T00:22:10.993Z,8.10
2018-01-26T00:24:39.284Z,8.00
2018-01-26T00:27:06.814Z,8.00
2018-01-26T00:29:34.336Z,8.10
2018-01-26T00:32:01.921Z,8.10
2018-01-26T00:34:29.426Z,8.00
2018-01-26T00:36:57.716Z,8.10
2018-01-26T00:39:25.294Z,8.00
2018-01-26T00:41:52.812Z,7.80
2018-01-26T00:44:20.340Z,8.10
2018-01-26T00:46:47.882Z,8.00
2018-01-26T00:49:16.221Z,8.00
2018-01-26T00:51:43.867Z,8.00
2018-01-26T00:54:13.282Z,8.00
2018-01-26T00:56:41.604Z,7.90
2018-01-26T00:59:09.281Z,7.90
2018-01-26T01:01:37.571Z,7.80
2018-01-26T01:04:05.089Z,7.80
2018-01-26T01:06:33.545Z,7.60
2018-01-26T01:09:01.073Z,7.60
2018-01-26T01:11:28.612Z,7.60
2018-01-26T01:13:56.266Z,7.70
2018-01-26T01:16:23.794Z,7.80
2018-01-26T01:18:51.348Z,7.50
2018-01-26T01:21:18.911Z,7.60
2018-01-26T01:23:47.221Z,7.40
2018-01-26T01:26:14.781Z,7.40
2018-01-26T01:28:42.317Z,7.50
2018-01-26T01:31:09.833Z,7.60
2018-01-26T01:33:38.150Z,7.20
2018-01-26T01:36:06.462Z,7.40
2018-01-26T01:38:33.981Z,7.40
2018-01-26T01:41:01.492Z,7.60
2018-01-26T01:43:29.789Z,7.50
2018-01-26T01:45:57.311Z,7.50
2018-01-26T01:48:24.814Z,7.50
2018-01-26T01:50:52.667Z,7.50
2018-01-26T01:53:21.365Z,7.50
2018-01-26T01:55:48.892Z,7.60
2018-01-26T01:58:16.540Z,7.50
2018-01-26T02:00:44.073Z,7.50
2018-01-26T02:03:11.610Z,7.50
2018-01-26T02:05:39.144Z,7.40
2018-01-26T02:08:06.661Z,7.30
2018-01-26T02:10:34.195Z,7.30
2018-01-26T02:13:01.949Z,7.40
2018-01-26T02:15:29.497Z,7.30
2018-01-26T02:17:57.794Z,7.50
2018-01-26T02:20:25.372Z,7.50
2018-01-26T02:22:53.673Z,7.40
2018-01-26T02:25:21.320Z,7.50
2018-01-26T02:27:48.825Z,7.40
2018-01-26T02:30:16.506Z,7.40
2018-01-26T02:32:44.857Z,7.40
2018-01-26T02:35:12.399Z,7.40
2018-01-26T02:37:39.950Z,7.50
2018-01-26T02:40:08.249Z,7.30
2018-01-26T02:42:35.816Z,7.30
2018-01-26T02:45:04.120Z,7.20
2018-01-26T02:47:31.663Z,7.20
2018-01-26T02:50:00.754Z,7.30
2018-01-26T02:52:28.270Z,7.30
2018-01-26T02:54:55.783Z,7.20
2018-01-26T02:57:23.321Z,7.10
2018-01-26T02:59:51.621Z,6.90
2018-01-26T03:02:19.130Z,7.00
2018-01-26T03:04:47.545Z,7.00
2018-01-26T03:07:15.062Z,7.00
2018-01-26T03:09:42.593Z,7.10
2018-01-26T03:12:10.125Z,7.10
2018-01-26T03:14:37.676Z,7.10
2018-01-26T03:17:05.286Z,7.10
2018-01-26T03:19:33.574Z,7.20
2018-01-26T03:22:01.096Z,7.10
2018-01-26T03:24:28.738Z,7.10
2018-01-26T03:26:56.246Z,7.10
2018-01-26T03:29:24.556Z,7.10
2018-01-26T03:31:52.099Z,7.10
2018-01-26T03:34:19.625Z,7.10
2018-01-26T03:36:47.173Z,7.10
2018-01-26T03:39:14.723Z,7.10
2018-01-26T03:41:43.009Z,7.00
2018-01-26T03:44:10.531Z,7.00
2018-01-26T03:46:38.083Z,7.00
2018-01-26T03:49:05.678Z,7.00
2018-01-26T03:51:33.337Z,6.90
2018-01-26T03:54:00.917Z,6.90
2018-01-26T03:56:29.227Z,7.00
2018-01-26T03:58:57.527Z,6.90
2018-01-26T04:01:25.165Z,6.90
2018-01-26T04:03:53.467Z,7.00
2018-01-26T04:06:21.058Z,7.00
2018-01-26T04:08:48.603Z,6.90
2018-01-26T04:11:16.152Z,6.90
2018-01-26T04:13:44.453Z,6.90
2018-01-26T04:16:11.971Z,6.90
2018-01-26T04:18:39.525Z,6.80
2018-01-26T04:21:07.055Z,6.80
2018-01-26T04:23:34.584Z,6.70
2018-01-26T04:26:03.794Z,6.70
2018-01-26T04:28:32.462Z,6.70
2018-01-26T04:31:00.033Z,6.70
2018-01-26T04:33:27.546Z,6.60
2018-01-26T04:35:55.850Z,6.70
2018-01-26T04:38:23.376Z,6.70
2018-01-26T04:40:50.895Z,6.70
2018-01-26T04:43:18.454Z,6.70
2018-01-26T04:45:46.782Z,6.60
2018-01-26T04:48:15.071Z,6.60
2018-01-26T04:50:43.373Z,6.50
2018-01-26T04:53:11.688Z,6.50
2018-01-26T04:55:39.203Z,6.50
2018-01-26T04:58:06.726Z,6.50
2018-01-26T05:00:34.381Z,6.50
2018-01-26T05:03:02.700Z,6.70
2018-01-26T05:05:30.979Z,6.60
2018-01-26T05:07:58.554Z,6.50
2018-01-26T05:10:26.090Z,6.50
2018-01-26T05:12:54.375Z,6.50
2018-01-26T05:15:21.927Z,6.50
2018-01-26T05:17:49.461Z,6.50
2018-01-26T05:20:17.042Z,6.50
2018-01-26T05:22:44.589Z,6.50
2018-01-26T05:25:13.000Z,6.50
2018-01-26T05:27:40.573Z,6.50
2018-01-26T05:30:08.869Z,6.30
2018-01-26T05:32:37.187Z,6.30
2018-01-26T05:35:04.710Z,6.30
2018-01-26T05:37:32.439Z,6.30
2018-01-26T05:39:59.965Z,6.40
2018-01-26T05:42:27.491Z,6.40
2018-01-26T05:44:55.629Z,6.30
2018-01-26T05:47:23.160Z,6.30
2018-01-26T05:49:52.242Z,6.20
2018-01-26T05:52:19.788Z,6.20
2018-01-26T05:54:47.297Z,6.20
2018-01-26T05:57:14.913Z,6.10
2018-01-26T05:59:43.230Z,6.10
2018-01-26T06:02:10.767Z,6.20
2018-01-26T06:04:38.335Z,6.00
2018-01-26T06:07:05.886Z,5.80
2018-01-26T06:09:33.655Z,5.90
2018-01-26T06:12:01.200Z,6.00
2018-01-26T06:14:29.516Z,5.90
2018-01-26T06:16:57.129Z,5.90
2018-01-26T06:19:24.665Z,5.90
2018-01-26T06:21:52.201Z,6.00
2018-01-26T06:24:19.745Z,6.00
2018-01-26T06:26:48.042Z,6.00
2018-01-26T06:29:15.702Z,6.00
2018-01-26T06:31:43.246Z,6.10
2018-01-26T06:34:10.791Z,6.10
2018-01-26T06:36:39.100Z,5.90
2018-01-26T06:39:06.673Z,5.90
2018-01-26T06:41:35.077Z,5.90
2018-01-26T06:44:02.716Z,5.90
2018-01-26T06:46:30.233Z,5.80
2018-01-26T06:48:57.765Z,5.80
2018-01-26T06:51:25.493Z,5.90
2018-01-26T06:53:53.051Z,5.90
2018-01-26T06:56:20.637Z,5.80
2018-01-26T06:58:48.152Z,5.80
2018-01-26T07:01:16.636Z,5.80
2018-01-26T07:03:44.187Z,5.70
2018-01-26T07:06:12.501Z,5.90
2018-01-26T07:08:40.025Z,5.90
2018-01-26T07:11:07.542Z,5.80
2018-01-26T07:13:35.127Z,5.80
2018-01-26T07:16:03.664Z,5.90
2018-01-26T07:18:31.235Z,5.90
2018-01-26T07:20:58.837Z,5.90
2018-01-26T07:23:27.149Z,5.90
2018-01-26T07:25:54.753Z,5.90
2018-01-26T07:28:22.312Z,5.90
2018-01-26T07:30:49.830Z,6.00
2018-01-26T07:33:17.659Z,6.00
2018-01-26T07:35:45.252Z,6.00
2018-01-26T07:38:12.795Z,6.10
2018-01-26T07:40:40.309Z,6.10
2018-01-26T07:43:07.944Z,6.00
2018-01-26T07:45:35.470Z,6.00
2018-01-26T07:48:03.189Z,6.20
2018-01-26T07:50:30.784Z,6.20
2018-01-26T07:52:58.321Z,6.40
2018-01-26T07:55:26.861Z,6.30
2018-01-26T07:57:55.503Z,6.30
2018-01-26T08:00:23.036Z,6.30
2018-01-26T08:02:51.379Z,6.40
2018-01-26T08:05:18.905Z,6.30
2018-01-26T08:07:46.444Z,6.50
2018-01-26T08:10:14.013Z,6.40
2018-01-26T08:12:41.540Z,6.50
2018-01-26T08:15:09.809Z,6.40
2018-01-26T08:17:37.377Z,6.40
2018-01-26T08:20:05.690Z,6.50
2018-01-26T08:22:34.277Z,6.50
2018-01-26T08:25:01.811Z,6.50
2018-01-26T08:27:29.393Z,6.50
2018-01-26T08:29:57.716Z,6.60
2018-01-26T08:32:25.482Z,6.60
2018-01-26T08:34:53.125Z,6.70
2018-01-26T08:37:20.686Z,6.90
2018-01-26T08:39:48.288Z,7.00
2018-01-26T08:42:15.920Z,7.00
2018-01-26T08:44:43.447Z,7.20
2018-01-26T08:47:10.990Z,7.10
2018-01-26T08:49:38.513Z,7.30
2018-01-26T08:52:06.080Z,7.50
2018-01-26T08:54:33.977Z,7.80
2018-01-26T08:57:01.516Z,8.00
2018-01-26T08:59:29.070Z,8.30
2018-01-26T09:01:56.616Z,8.50
2018-01-26T09:04:24.920Z,8.90
2018-01-26T09:06:52.550Z,8.90
2018-01-26T09:09:20.072Z,9.10
2018-01-26T09:11:47.623Z,9.30
2018-01-26T09:14:16.309Z,9.60
2018-01-26T09:16:44.113Z,9.60
2018-01-26T09:19:11.646Z,9.60
2018-01-26T09:21:39.209Z,9.70
2018-01-26T09:24:07.513Z,9.80
2018-01-26T09:26:35.047Z,9.70
2018-01-26T09:29:03.596Z,9.90
2018-01-26T09:31:31.181Z,9.80
2018-01-26T09:33:58.693Z,9.90
2018-01-26T09:36:26.261Z,10.00
2018-01-26T09:38:53.993Z,10.10
2018-01-26T09:41:21.540Z,10.20
2018-01-26T09:43:49.839Z,10.00
2018-01-26T09:46:17.465Z,10.00
2018-01-26T09:48:45.791Z,10.00
2018-01-26T09:51:14.313Z,10.00
2018-01-26T09:53:41.869Z,10.00
2018-01-26T09:56:10.611Z,10.00
2018-01-26T09:58:38.332Z,10.00
2018-01-26T10:01:05.969Z,9.70
2018-01-26T10:03:33.757Z,9.50
2018-01-26T10:06:02.206Z,9.30
2018-01-26T10:08:29.755Z,9.30
2018-01-26T10:10:57.498Z,9.60
2018-01-26T10:13:25.027Z,9.80
2018-01-26T10:15:52.557Z,9.90
2018-01-26T10:18:21.911Z,10.00
2018-01-26T10:20:49.456Z,10.00
2018-01-26T10:23:17.020Z,9.80
2018-01-26T10:25:44.557Z,9.50
2018-01-26T10:28:12.241Z,9.30
2018-01-26T10:30:40.058Z,9.60
2018-01-26T10:33:08.518Z,10.00
2018-01-26T10:35:36.080Z,10.00
2018-01-26T10:38:03.900Z,10.30
2018-01-26T10:40:31.436Z,10.60
2018-01-26T10:43:00.469Z,11.20
2018-01-26T10:45:28.062Z,11.20
2018-01-26T10:47:55.629Z,11.40
2018-01-26T10:50:23.942Z,11.60
2018-01-26T10:52:51.535Z,11.60
2018-01-26T10:55:19.894Z,11.90
2018-01-26T10:57:47.402Z,11.90
2018-01-26T11:00:14.980Z,12.10
2018-01-26T11:02:42.561Z,12.30
2018-01-26T11:05:10.101Z,12.30
2018-01-26T11:07:37.686Z,12.30
2018-01-26T11:10:05.250Z,12.20
2018-01-26T11:12:33.044Z,12.00
2018-01-26T11:15:00.654Z,12.00
2018-01-26T11:17:28.181Z,12.20
2018-01-26T11:19:56.550Z,12.30
2018-01-26T11:22:24.870Z,12.10
2018-01-26T11:24:52.433Z,12.10
2018-01-26T11:27:19.969Z,12.10
2018-01-26T11:29:47.527Z,12.20
2018-01-26T11:32:15.185Z,12.10
2018-01-26T11:34:42.765Z,12.10
2018-01-26T11:37:10.513Z,12.20
2018-01-26T11:39:38.153Z,11.80
2018-01-26T11:42:05.769Z,11.50
2018-01-26T11:44:33.308Z,11.10
2018-01-26T11:47:00.858Z,10.90
2018-01-26T11:49:28.552Z,10.60
2018-01-26T11:51:56.350Z,10.50
2018-01-26T11:54:23.909Z,10.30
2018-01-26T11:56:52.249Z,10.00
2018-01-26T11:59:19.815Z,10.00
2018-01-26T12:01:47.455Z,10.00
2018-01-26T12:04:15.183Z,9.90
2018-01-26T12:06:42.785Z,9.90
2018-01-26T12:09:10.583Z,9.60
2018-01-26T12:11:38.234Z,9.60
2018-01-26T12:14:06.122Z,9.60
2018-01-26T12:16:34.411Z,9.50
2018-01-26T12:19:02.236Z,9.50
2018-01-26T12:21:29.802Z,9.40
2018-01-26T12:23:58.204Z,9.20
2018-01-26T12:26:25.756Z,9.10
2018-01-26T12:28:54.048Z,8.90
2018-01-26T12:31:21.681Z,8.90
2018-01-26T12:33:50.104Z,8.90
2018-01-26T12:36:17.776Z,8.90
2018-01-26T12:38:45.347Z,8.90
2018-01-26T12:41:13.014Z,9.00
2018-01-26T12:43:40.721Z,9.00
2018-01-26T12:46:08.274Z,9.10
2018-01-26T12:48:35.833Z,9.10
2018-01-26T12:51:03.364Z,9.10
2018-01-26T12:53:30.928Z,9.00
2018-01-26T12:55:59.360Z,8.90
2018-01-26T12:58:26.873Z,8.90
2018-01-26T13:00:54.566Z,8.90
2018-01-26T13:03:22.303Z,8.90
2018-01-26T13:05:49.990Z,9.00
2018-01-26T13:08:17.636Z,8.80
2018-01-26T13:10:45.232Z,8.90
2018-01-26T13:13:13.076Z,8.80
2018-01-26T13:15:41.469Z,8.90
2018-01-26T13:18:09.069Z,8.80
2018-01-26T13:20:37.438Z,8.80
2018-01-26T13:23:05.766Z,8.80
2018-01-26T13:25:33.355Z,8.80
2018-01-26T13:28:00.881Z,8.90
2018-01-26T13:30:28.409Z,9.00
2018-01-26T13:32:57.830Z,9.00
2018-01-26T13:35:25.386Z,9.00
2018-01-26T13:37:53.104Z,9.00
2018-01-26T13:40:20.836Z,9.00
2018-01-26T13:42:48.387Z,9.10
2018-01-26T13:45:16.120Z,9.00
2018-01-26T13:47:44.551Z,9.00
2018-01-26T13:50:13.174Z,9.00
2018-01-26T13:52:41.538Z,8.90
2018-01-26T13:55:09.937Z,8.90
2018-01-26T13:57:38.363Z,8.90
2018-01-26T14:00:06.985Z,8.90
2018-01-26T14:02:35.462Z,8.90
2018-01-26T14:05:03.160Z,8.90
2018-01-26T14:07:30.679Z,8.80
2018-01-26T14:09:59.047Z,8.90
2018-01-26T14:12:26.618Z,8.90
2018-01-26T14:14:54.920Z,9.10
2018-01-26T14:17:22.460Z,9.00
2018-01-26T14:19:50.820Z,9.20
2018-01-26T14:22:18.390Z,9.20
2018-01-26T14:24:46.695Z,9.40
2018-01-26T14:27:14.330Z,9.40
2018-01-26T14:29:42.670Z,9.60
2018-01-26T14:32:10.325Z,9.60
2018-01-26T14:34:37.911Z,9.70
2018-01-26T14:37:05.484Z,9.60
2018-01-26T14:39:33.081Z,9.80
2018-01-26T14:42:00.623Z,9.90
2018-01-26T14:44:28.150Z,10.00
2018-01-26T14:46:56.506Z,10.00
2018-01-26T14:49:24.030Z,10.00
2018-01-26T14:51:51.641Z,10.00
2018-01-26T14:54:19.974Z,9.90
2018-01-26T14:56:47.542Z,9.80
2018-01-26T14:59:15.076Z,9.80
2018-01-26T15:01:42.626Z,9.80
2018-01-26T15:04:10.162Z,9.80
2018-01-26T15:06:38.685Z,9.60
2018-01-26T15:09:06.239Z,9.60
2018-01-26T15:11:33.792Z,9.50
2018-01-26T15:14:03.288Z,9.50
2018-01-26T15:16:30.820Z,9.40
2018-01-26T15:18:59.119Z,9.30
2018-01-26T15:21:26.711Z,9.30
2018-01-26T15:23:54.252Z,9.20
2018-01-26T15:26:21.865Z,9.10
2018-01-26T15:28:50.311Z,9.20
2018-01-26T15:31:18.089Z,9.10
2018-01-26T15:33:45.651Z,9.20
2018-01-26T15:36:13.987Z,8.90
2018-01-26T15:38:41.540Z,8.90
2018-01-26T15:41:09.134Z,8.80
2018-01-26T15:43:36.667Z,8.80
2018-01-26T15:46:04.227Z,8.80
2018-01-26T15:48:31.995Z,8.90
2018-01-26T15:50:59.551Z,8.90
2018-01-26T15:53:27.073Z,8.80
2018-01-26T15:55:54.677Z,8.80
2018-01-26T15:58:22.322Z,8.80
2018-01-26T16:00:50.979Z,8.80
2018-01-26T16:03:18.986Z,8.80
2018-01-26T16:05:47.488Z,8.80
2018-01-26T16:08:15.980Z,8.80
2018-01-26T16:10:43.845Z,8.80
2018-01-26T16:13:12.193Z,8.70
2018-01-26T16:15:41.396Z,8.70
2018-01-26T16:18:09.186Z,8.60
2018-01-26T16:20:36.814Z,8.60
2018-01-26T16:23:04.391Z,8.50
2018-01-26T16:25:31.983Z,8.60
2018-01-26T16:27:59.499Z,8.60
2018-01-26T16:30:27.020Z,8.60
2018-01-26T16:32:54.698Z,8.60
2018-01-26T16:35:22.278Z,8.60
2018-01-26T16:37:49.912Z,8.50
2018-01-26T16:40:17.693Z,8.40
2018-01-26T16:42:45.272Z,8.50
2018-01-26T16:45:13.570Z,8.30
2018-01-26T16:47:41.232Z,8.30
2018-01-26T16:50:08.783Z,8.10
2018-01-26T16:52:36.322Z,8.00
2018-01-26T16:55:03.889Z,8.00
2018-01-26T16:57:32.184Z,8.10
2018-01-26T16:59:59.812Z,8.10
2018-01-26T17:02:27.362Z,7.90
2018-01-26T17:04:54.972Z,7.90
2018-01-26T17:07:48.984Z,7.80
2018-01-26T17:10:16.547Z,7.70
2018-01-26T17:12:44.114Z,7.70
2018-01-26T17:15:11.640Z,7.60
2018-01-26T17:17:39.153Z,7.60
2018-01-26T17:20:07.488Z,7.50
2018-01-26T17:22:35.005Z,7.50
2018-01-26T17:25:02.582Z,7.50
2018-01-26T17:27:30.390Z,7.40
2018-01-26T17:29:57.954Z,7.40
2018-01-26T17:32:25.543Z,7.40
2018-01-26T17:34:53.092Z,7.40
2018-01-26T17:37:21.389Z,7.30
2018-01-26T17:39:48.967Z,7.30
2018-01-26T17:42:16.597Z,7.20
2018-01-26T17:44:44.427Z,7.20
2018-01-26T17:47:11.976Z,7.10
2018-01-26T17:49:39.664Z,7.10
2018-01-26T17:52:07.179Z,7.10
2018-01-26T17:54:34.729Z,7.10
2018-01-26T17:57:02.334Z,7.10
2018-01-26T17:59:30.724Z,7.00
2018-01-26T18:01:59.230Z,7.00
2018-01-26T18:04:27.575Z,7.00
2018-01-26T18:06:55.906Z,7.00
2018-01-26T18:09:23.443Z,7.00
2018-01-26T18:11:50.986Z,7.00
2018-01-26T18:14:19.446Z,6.90
2018-01-26T18:16:47.838Z,6.90
2018-01-26T18:19:15.470Z,6.90
2018-01-26T18:21:43.873Z,6.80
2018-01-26T18:24:11.416Z,6.80
2018-01-26T18:26:39.755Z,6.80
2018-01-26T18:29:07.342Z,6.80
2018-01-26T18:31:34.893Z,6.90
2018-01-26T18:34:02.440Z,6.90
2018-01-26T18:36:29.991Z,6.90
2018-01-26T18:39:02.685Z,6.90
2018-01-26T18:41:31.058Z,6.90
2018-01-26T18:43:58.602Z,6.90
2018-01-26T18:46:26.143Z,6.90
2018-01-26T18:48:53.781Z,6.90
2018-01-26T18:51:21.422Z,6.90
2018-01-26T18:53:49.716Z,6.80
2018-01-26T18:56:17.447Z,6.80
2018-01-26T18:58:45.013Z,6.90
2018-01-26T19:01:13.332Z,6.90
2018-01-26T19:03:40.883Z,6.80
2018-01-26T19:06:08.455Z,6.80
2018-01-26T19:08:36.164Z,6.80
2018-01-26T19:11:04.477Z,6.80
2018-01-26T19:13:32.044Z,6.70
2018-01-26T19:15:59.622Z,6.80
2018-01-26T19:18:27.218Z,6.80
2018-01-26T19:20:55.547Z,6.80
2018-01-26T19:23:23.112Z,6.80
2018-01-26T19:25:50.697Z,6.80
2018-01-26T19:28:18.420Z,6.80
2018-01-26T19:30:45.979Z,6.80
2018-01-26T19:33:13.509Z,6.80
2018-01-26T19:35:41.069Z,6.70
2018-01-26T19:38:08.714Z,6.70
2018-01-26T19:40:37.030Z,6.70
2018-01-26T19:43:04.579Z,6.70
2018-01-26T19:45:32.200Z,6.70
2018-01-26T19:48:00.534Z,6.60
2018-01-26T19:50:28.079Z,6.60
2018-01-26T19:52:55.663Z,6.60
2018-01-26T19:55:23.198Z,6.60
2018-01-26T19:57:50.722Z,6.60
2018-01-26T20:00:19.099Z,6.50
2018-01-26T20:02:47.409Z,6.40
2018-01-26T20:05:32.632Z,6.40
2018-01-26T20:08:00.939Z,6.40
2018-01-26T20:10:29.504Z,6.40
2018-01-26T20:13:02.754Z,6.50
2018-01-26T20:15:30.360Z,6.50
2018-01-26T20:17:57.879Z,6.40
2018-01-26T20:20:25.469Z,6.40
2018-01-26T20:25:18.343Z,6.30
2018-01-26T20:27:45.954Z,6.30
2018-01-26T20:30:13.620Z,6.10
2018-01-26T20:32:41.130Z,6.20
2018-01-26T20:35:08.721Z,6.10
2018-01-26T20:37:36.362Z,6.10
2018-01-26T20:40:03.910Z,6.20
2018-01-26T20:42:31.516Z,6.20
2018-01-26T20:44:59.256Z,6.10
2018-01-26T20:47:26.804Z,6.10
2018-01-26T20:49:54.362Z,6.30
2018-01-26T20:52:22.695Z,6.20
2018-01-26T20:54:50.251Z,6.20
2018-01-26T20:57:18.051Z,6.20
2018-01-26T20:59:45.752Z,6.20
2018-01-26T21:02:13.301Z,6.20
2018-01-26T21:04:41.649Z,6.20
2018-01-26T21:07:09.205Z,6.20
2018-01-26T21:09:36.737Z,6.20
2018-01-26T21:12:04.311Z,6.20
2018-01-26T21:14:31.858Z,6.20
2018-01-26T21:16:59.398Z,6.20
2018-01-26T21:19:27.023Z,6.30
2018-01-26T21:21:55.346Z,6.30
2018-01-26T21:24:22.866Z,6.20
2018-01-26T21:26:50.468Z,6.30
2018-01-26T21:29:18.798Z,6.30
2018-01-26T21:31:46.362Z,6.20
2018-01-26T21:34:14.726Z,6.20
2018-01-26T21:36:42.264Z,6.20
2018-01-26T21:39:09.806Z,6.30
2018-01-26T21:41:37.388Z,6.20
2018-01-26T21:44:04.941Z,6.20
2018-01-26T21:46:32.533Z,6.30
2018-01-26T21:49:00.119Z,6.20
2018-01-26T21:51:27.671Z,6.30
2018-01-26T21:53:55.254Z,6.30
2018-01-26T21:56:22.836Z,6.30
2018-01-26T21:58:51.146Z,6.40
2018-01-26T22:01:18.767Z,6.40
2018-01-26T22:03:46.364Z,6.40
2018-01-26T22:09:18.604Z,6.50
2018-01-26T22:11:46.134Z,6.50
2018-01-26T22:14:14.571Z,6.50
2018-01-26T22:16:42.157Z,6.50
2018-01-26T22:19:09.701Z,6.40
2018-01-26T22:21:37.990Z,6.70
2018-01-26T22:24:05.559Z,6.70
2018-01-26T22:26:33.169Z,6.70
2018-01-26T22:29:01.466Z,6.90
2018-01-26T22:31:29.002Z,6.90
2018-01-26T22:33:56.548Z,6.90
2018-01-26T22:36:24.349Z,7.00
2018-01-26T22:38:51.928Z,7.00
2018-01-26T22:41:19.466Z,7.00
2018-01-26T22:43:47.036Z,7.10
2018-01-26T22:46:14.692Z,7.10
2018-01-26T22:48:42.205Z,7.20
2018-01-26T22:51:09.710Z,7.10
2018-01-26T22:53:37.281Z,7.10
2018-01-26T22:56:04.807Z,7.20
2018-01-26T22:58:32.389Z,7.20
2018-01-26T23:01:00.720Z,7.20
2018-01-26T23:03:28.276Z,7.20
2018-01-26T23:05:55.817Z,7.30
2018-01-26T23:08:23.389Z,7.30
2018-01-26T23:10:51.668Z,7.40
2018-01-26T23:13:19.433Z,7.40
2018-01-26T23:15:47.145Z,7.50
2018-01-26T23:18:14.762Z,7.50
2018-01-26T23:20:43.070Z,7.50
2018-01-26T23:23:11.385Z,7.50
2018-01-26T23:25:39.689Z,7.60
2018-01-26T23:28:07.209Z,7.60
2018-01-26T23:30:34.770Z,7.60
2018-01-26T23:33:02.301Z,7.60
2018-01-26T23:35:30.595Z,7.70
2018-01-26T23:37:58.993Z,7.70
2018-01-26T23:40:27.287Z,7.80
2018-01-26T23:42:54.842Z,7.80
2018-01-26T23:45:22.404Z,7.70
2018-01-26T23:47:49.941Z,7.70
2018-01-26T23:50:17.610Z,7.70
2018-01-26T23:52:45.168Z,7.80
2018-01-26T23:55:12.703Z,7.80
2018-01-26T23:57:41.004Z,7.70
